createdAt,value
2017-05-10T00:00:41.782Z,1007.44
2017-05-10T00:01:41.754Z,1007.43
2017-05-10T00:02:41.739Z,1007.4
2017-05-10T00:03:41.712Z,1007.4
2017-05-10T00:04:41.695Z,1007.39
2017-05-10T00:05:41.673Z,1007.44
2017-05-10T00:06:41.652Z,1007.39
2017-05-10T00:07:41.634Z,1007.37
2017-05-10T00:08:41.607Z,1007.37
2017-05-10T00:09:41.605Z,1007.37
2017-05-10T00:10:41.572Z,1007.32
2017-05-10T00:11:41.553Z,1007.31
2017-05-10T00:12:41.525Z,1007.29
2017-05-10T00:13:41.509Z,1007.3
2017-05-10T00:14:41.483Z,1007.26
2017-05-10T00:15:41.461Z,1007.28
2017-05-10T00:16:41.443Z,1007.26
2017-05-10T00:17:41.424Z,1007.21
2017-05-10T00:18:41.401Z,1007.17
2017-05-10T00:19:41.382Z,1007.17
2017-05-10T00:20:41.360Z,1007.13
2017-05-10T00:21:41.335Z,1007.15
2017-05-10T00:22:41.317Z,1007.16
2017-05-10T00:23:41.296Z,1007.15
2017-05-10T00:24:41.281Z,1007.17
2017-05-10T00:25:41.252Z,1007.17
2017-05-10T00:26:41.234Z,1007.16
2017-05-10T00:27:41.210Z,1007.13
2017-05-10T00:28:41.193Z,1007.09
2017-05-10T00:29:41.173Z,1007.1
2017-05-10T00:30:41.154Z,1007.07
2017-05-10T00:31:41.131Z,1007.07
2017-05-10T00:32:41.108Z,1007.08
2017-05-10T00:33:41.087Z,1007.04
2017-05-10T00:34:41.065Z,1007.01
2017-05-10T00:35:41.046Z,1007.01
2017-05-10T00:36:41.023Z,1006.97
2017-05-10T00:37:41.014Z,1006.97
2017-05-10T00:38:40.981Z,1006.96
2017-05-10T00:39:40.966Z,1006.96
2017-05-10T00:40:40.948Z,1006.92
2017-05-10T00:41:40.918Z,1006.91
2017-05-10T00:42:40.898Z,1006.92
2017-05-10T00:43:40.880Z,1006.93
2017-05-10T00:44:40.855Z,1006.89
2017-05-10T00:45:40.833Z,1006.9
2017-05-10T00:46:40.813Z,1006.89
2017-05-10T00:47:40.793Z,1006.88
2017-05-10T00:48:40.770Z,1006.83
2017-05-10T00:49:40.751Z,1006.83
2017-05-10T00:50:40.735Z,1006.82
2017-05-10T00:51:40.705Z,1006.84
2017-05-10T00:52:40.693Z,1006.86
2017-05-10T00:53:40.665Z,1006.83
2017-05-10T00:54:40.642Z,1006.82
2017-05-10T00:55:40.621Z,1006.82
2017-05-10T00:56:40.602Z,1006.78
2017-05-10T00:57:40.578Z,1006.8
2017-05-10T00:58:40.563Z,1006.8
2017-05-10T00:59:40.537Z,1006.83
2017-05-10T01:00:40.521Z,1006.82
2017-05-10T01:01:40.493Z,1006.8
2017-05-10T01:02:40.473Z,1006.8
2017-05-10T01:03:40.452Z,1006.78
2017-05-10T01:04:40.432Z,1006.76
2017-05-10T01:05:40.423Z,1006.76
2017-05-10T01:06:40.389Z,1006.8
2017-05-10T01:07:40.374Z,1006.71
2017-05-10T01:08:40.346Z,1006.71
2017-05-10T01:09:40.321Z,1006.68
2017-05-10T01:10:40.301Z,1006.68
2017-05-10T01:11:40.334Z,1006.64
2017-05-10T01:12:40.264Z,1006.63
2017-05-10T01:13:40.245Z,1006.63
2017-05-10T01:14:40.224Z,1006.59
2017-05-10T01:15:40.247Z,1006.56
2017-05-10T01:16:40.180Z,1006.56
2017-05-10T01:17:40.211Z,1006.58
2017-05-10T01:18:40.141Z,1006.55
2017-05-10T01:19:40.114Z,1006.55
2017-05-10T01:20:40.089Z,1006.51
2017-05-10T01:21:40.157Z,1006.52
2017-05-10T01:22:40.051Z,1006.49
2017-05-10T01:23:40.113Z,1006.52
2017-05-10T01:24:40.009Z,1006.5
2017-05-10T01:25:40.063Z,1006.54
2017-05-10T01:26:39.963Z,1006.51
2017-05-10T01:27:39.941Z,1006.56
2017-05-10T01:28:39.918Z,1006.52
2017-05-10T01:29:39.899Z,1006.54
2017-05-10T01:30:39.881Z,1006.53
2017-05-10T01:31:39.913Z,1006.51
2017-05-10T01:32:39.835Z,1006.53
2017-05-10T01:33:39.813Z,1006.5
2017-05-10T01:34:39.791Z,1006.49
2017-05-10T01:35:39.817Z,1006.48
2017-05-10T01:36:39.754Z,1006.45
2017-05-10T01:37:39.834Z,1006.42
2017-05-10T01:38:39.703Z,1006.39
2017-05-10T01:39:39.692Z,1006.34
2017-05-10T01:40:39.662Z,1006.39
2017-05-10T01:41:39.694Z,1006.38
2017-05-10T01:42:39.615Z,1006.36
2017-05-10T01:43:39.639Z,1006.38
2017-05-10T01:44:39.582Z,1006.34
2017-05-10T01:45:39.555Z,1006.34
2017-05-10T01:46:39.536Z,1006.33
2017-05-10T01:47:39.582Z,1006.31
2017-05-10T01:48:39.493Z,1006.29
2017-05-10T01:49:39.468Z,1006.28
2017-05-10T01:50:39.448Z,1006.25
2017-05-10T01:51:39.432Z,1006.21
2017-05-10T01:52:39.400Z,1006.25
2017-05-10T01:53:39.385Z,1006.22
2017-05-10T01:54:39.360Z,1006.16
2017-05-10T01:55:39.345Z,1006.16
2017-05-10T01:56:39.322Z,1006.17
2017-05-10T01:57:39.300Z,1006.19
2017-05-10T01:58:39.270Z,1006.16
2017-05-10T01:59:39.251Z,1006.14
2017-05-10T02:00:39.235Z,1006.13
2017-05-10T02:01:39.209Z,1006.18
2017-05-10T02:02:39.188Z,1006.13
2017-05-10T02:03:39.169Z,1006.14
2017-05-10T02:04:39.148Z,1006.13
2017-05-10T02:05:39.121Z,1006.1
2017-05-10T02:06:39.101Z,1006.13
2017-05-10T02:07:39.079Z,1006.06
2017-05-10T02:08:39.063Z,1006.05
2017-05-10T02:09:39.036Z,1006.07
2017-05-10T02:10:39.013Z,1006.06
2017-05-10T02:11:38.991Z,1006.06
2017-05-10T02:12:38.971Z,1006
2017-05-10T02:13:38.951Z,1006.03
2017-05-10T02:14:38.929Z,1006.01
2017-05-10T02:15:38.905Z,1005.99
2017-05-10T02:16:38.887Z,1006.02
2017-05-10T02:17:38.864Z,1006.02
2017-05-10T02:18:38.842Z,1005.99
2017-05-10T02:19:38.823Z,1006.01
2017-05-10T02:20:38.801Z,1006
2017-05-10T02:21:38.781Z,1006
2017-05-10T02:22:38.755Z,1005.99
2017-05-10T02:23:38.733Z,1006
2017-05-10T02:24:38.712Z,1005.93
2017-05-10T02:25:38.695Z,1005.98
2017-05-10T02:26:38.666Z,1005.9
2017-05-10T02:27:38.653Z,1005.98
2017-05-10T02:28:38.622Z,1005.91
2017-05-10T02:29:38.604Z,1005.89
2017-05-10T02:30:38.583Z,1005.89
2017-05-10T02:31:38.563Z,1005.86
2017-05-10T02:32:38.542Z,1005.84
2017-05-10T02:33:38.519Z,1005.83
2017-05-10T02:34:38.493Z,1005.84
2017-05-10T02:35:38.473Z,1005.79
2017-05-10T02:36:38.457Z,1005.79
2017-05-10T02:37:38.431Z,1005.77
2017-05-10T02:38:38.409Z,1005.75
2017-05-10T02:39:38.386Z,1005.74
2017-05-10T02:40:38.363Z,1005.73
2017-05-10T02:41:38.341Z,1005.72
2017-05-10T02:42:38.322Z,1005.72
2017-05-10T02:43:38.300Z,1005.7
2017-05-10T02:44:38.273Z,1005.71
2017-05-10T02:45:38.254Z,1005.68
2017-05-10T02:46:38.246Z,1005.67
2017-05-10T02:47:38.215Z,1005.69
2017-05-10T02:48:38.191Z,1005.67
2017-05-10T02:49:38.173Z,1005.62
2017-05-10T02:50:38.144Z,1005.64
2017-05-10T02:51:38.123Z,1005.63
2017-05-10T02:52:38.099Z,1005.65
2017-05-10T02:53:38.079Z,1005.65
2017-05-10T02:54:38.053Z,1005.62
2017-05-10T02:55:38.034Z,1005.63
2017-05-10T02:56:38.010Z,1005.61
2017-05-10T02:57:37.992Z,1005.6
2017-05-10T02:58:37.974Z,1005.58
2017-05-10T02:59:37.943Z,1005.58
2017-05-10T03:00:37.923Z,1005.57
2017-05-10T03:01:37.903Z,1005.55
2017-05-10T03:02:37.878Z,1005.55
2017-05-10T03:03:37.853Z,1005.53
2017-05-10T03:04:37.839Z,1005.56
2017-05-10T03:05:37.813Z,1005.52
2017-05-10T03:06:37.793Z,1005.52
2017-05-10T03:07:37.774Z,1005.51
2017-05-10T03:08:37.753Z,1005.49
2017-05-10T03:09:37.726Z,1005.49
2017-05-10T03:10:37.700Z,1005.44
2017-05-10T03:11:37.682Z,1005.44
2017-05-10T03:12:37.656Z,1005.43
2017-05-10T03:13:37.634Z,1005.43
2017-05-10T03:14:37.614Z,1005.38
2017-05-10T03:15:37.594Z,1005.38
2017-05-10T03:16:37.568Z,1005.38
2017-05-10T03:17:37.552Z,1005.35
2017-05-10T03:18:37.522Z,1005.32
2017-05-10T03:19:37.504Z,1005.33
2017-05-10T03:20:37.484Z,1005.33
2017-05-10T03:21:37.464Z,1005.3
2017-05-10T03:22:37.435Z,1005.3
2017-05-10T03:23:37.411Z,1005.33
2017-05-10T03:24:37.394Z,1005.31
2017-05-10T03:25:37.373Z,1005.31
2017-05-10T03:26:37.345Z,1005.25
2017-05-10T03:27:37.323Z,1005.27
2017-05-10T03:28:37.301Z,1005.26
2017-05-10T03:29:37.283Z,1005.24
2017-05-10T03:30:37.262Z,1005.25
2017-05-10T03:31:37.234Z,1005.24
2017-05-10T03:32:37.214Z,1005.25
2017-05-10T03:33:37.188Z,1005.24
2017-05-10T03:34:37.175Z,1005.26
2017-05-10T03:35:37.144Z,1005.24
2017-05-10T03:36:37.123Z,1005.23
2017-05-10T03:37:37.105Z,1005.23
2017-05-10T03:38:37.080Z,1005.25
2017-05-10T03:39:37.057Z,1005.23
2017-05-10T03:40:37.043Z,1005.21
2017-05-10T03:41:37.012Z,1005.24
2017-05-10T03:42:36.992Z,1005.21
2017-05-10T03:43:36.973Z,1005.21
2017-05-10T03:44:36.945Z,1005.14
2017-05-10T03:45:36.926Z,1005.17
2017-05-10T03:46:36.899Z,1005.17
2017-05-10T03:47:36.880Z,1005.11
2017-05-10T03:48:36.855Z,1005.13
2017-05-10T03:49:36.833Z,1005.13
2017-05-10T03:50:36.812Z,1005.11
2017-05-10T03:51:36.795Z,1005.13
2017-05-10T03:52:36.770Z,1005.12
2017-05-10T03:53:36.755Z,1005.09
2017-05-10T03:54:36.765Z,1005.1
2017-05-10T03:55:36.703Z,1005.09
2017-05-10T03:56:36.681Z,1005.1
2017-05-10T03:57:36.663Z,1005.08
2017-05-10T03:58:36.635Z,1005.09
2017-05-10T03:59:36.614Z,1005.09
2017-05-10T04:00:36.588Z,1005.07
2017-05-10T04:01:36.565Z,1005.07
2017-05-10T04:02:36.544Z,1005.06
2017-05-10T04:03:36.523Z,1005.06
2017-05-10T04:04:36.499Z,1005.05
2017-05-10T04:05:36.483Z,1005.05
2017-05-10T04:06:36.458Z,1005.07
2017-05-10T04:07:36.432Z,1005.06
2017-05-10T04:08:36.413Z,1005.04
2017-05-10T04:09:36.387Z,1005.07
2017-05-10T04:10:36.367Z,1005.03
2017-05-10T04:11:36.345Z,1005.03
2017-05-10T04:12:36.329Z,1005.03
2017-05-10T04:13:36.298Z,1005.02
2017-05-10T04:14:36.282Z,1005.03
2017-05-10T04:15:36.254Z,1004.99
2017-05-10T04:16:36.245Z,1005.02
2017-05-10T04:17:36.213Z,1004.98
2017-05-10T04:18:36.239Z,1004.98
2017-05-10T04:19:36.163Z,1005.01
2017-05-10T04:20:36.194Z,1005.01
2017-05-10T04:21:36.123Z,1005.01
2017-05-10T04:22:36.102Z,1005.03
2017-05-10T04:23:36.073Z,1005.02
2017-05-10T04:24:36.120Z,1005.02
2017-05-10T04:25:36.031Z,1005
2017-05-10T04:26:36.014Z,1005
2017-05-10T04:27:35.986Z,1005.01
2017-05-10T04:28:36.122Z,1005.04
2017-05-10T04:29:35.942Z,1005.04
2017-05-10T04:30:36.057Z,1005.03
2017-05-10T04:31:35.895Z,1005.04
2017-05-10T04:32:35.876Z,1005.05
2017-05-10T04:33:35.855Z,1005.02
2017-05-10T04:34:35.833Z,1005.03
2017-05-10T04:35:35.821Z,1005.04
2017-05-10T04:36:35.863Z,1005.05
2017-05-10T04:37:35.762Z,1005.05
2017-05-10T04:38:35.745Z,1005.05
2017-05-10T04:39:35.719Z,1005.01
2017-05-10T04:40:35.819Z,1005.06
2017-05-10T04:41:35.674Z,1005.06
2017-05-10T04:42:35.652Z,1005.09
2017-05-10T04:43:35.643Z,1005.06
2017-05-10T04:44:35.625Z,1005.09
2017-05-10T04:45:35.583Z,1005.06
2017-05-10T04:46:35.564Z,1005.12
2017-05-10T04:47:35.541Z,1005.11
2017-05-10T04:48:35.525Z,1005.11
2017-05-10T04:49:35.495Z,1005.12
2017-05-10T04:50:35.474Z,1005.13
2017-05-10T04:51:35.454Z,1005.16
2017-05-10T04:52:35.424Z,1005.17
2017-05-10T04:53:35.401Z,1005.15
2017-05-10T04:54:35.377Z,1005.2
2017-05-10T04:55:35.355Z,1005.19
2017-05-10T04:56:35.336Z,1005.17
2017-05-10T04:57:35.320Z,1005.22
2017-05-10T04:58:35.301Z,1005.21
2017-05-10T04:59:35.274Z,1005.22
2017-05-10T05:00:35.254Z,1005.2
2017-05-10T05:01:35.222Z,1005.21
2017-05-10T05:02:35.205Z,1005.2
2017-05-10T05:03:35.185Z,1005.21
2017-05-10T05:04:35.163Z,1005.22
2017-05-10T05:05:35.143Z,1005.19
2017-05-10T05:06:35.113Z,1005.19
2017-05-10T05:07:35.093Z,1005.19
2017-05-10T05:08:35.073Z,1005.19
2017-05-10T05:09:35.047Z,1005.23
2017-05-10T05:10:35.023Z,1005.22
2017-05-10T05:11:35.014Z,1005.22
2017-05-10T05:12:34.984Z,1005.21
2017-05-10T05:13:34.965Z,1005.22
2017-05-10T05:14:34.945Z,1005.24
2017-05-10T05:15:34.923Z,1005.25
2017-05-10T05:16:34.896Z,1005.24
2017-05-10T05:17:34.870Z,1005.27
2017-05-10T05:18:34.855Z,1005.24
2017-05-10T05:19:34.835Z,1005.24
2017-05-10T05:20:34.811Z,1005.31
2017-05-10T05:21:34.784Z,1005.27
2017-05-10T05:22:34.762Z,1005.29
2017-05-10T05:23:34.752Z,1005.28
2017-05-10T05:24:34.720Z,1005.3
2017-05-10T05:25:34.709Z,1005.27
2017-05-10T05:26:34.674Z,1005.32
2017-05-10T05:27:34.654Z,1005.31
2017-05-10T05:28:34.635Z,1005.3
2017-05-10T05:29:34.614Z,1005.26
2017-05-10T05:30:34.587Z,1005.29
2017-05-10T05:31:34.574Z,1005.31
2017-05-10T05:32:34.551Z,1005.35
2017-05-10T05:33:34.522Z,1005.35
2017-05-10T05:34:34.500Z,1005.34
2017-05-10T05:35:34.484Z,1005.3
2017-05-10T05:36:34.457Z,1005.29
2017-05-10T05:37:34.441Z,1005.29
2017-05-10T05:38:34.415Z,1005.32
2017-05-10T05:39:34.401Z,1005.33
2017-05-10T05:40:34.372Z,1005.33
2017-05-10T05:41:34.353Z,1005.33
2017-05-10T05:42:34.332Z,1005.32
2017-05-10T05:43:34.314Z,1005.33
2017-05-10T05:44:34.292Z,1005.34
2017-05-10T05:45:34.266Z,1005.34
2017-05-10T05:46:34.244Z,1005.28
2017-05-10T05:47:34.221Z,1005.32
2017-05-10T05:48:34.202Z,1005.33
2017-05-10T05:49:34.185Z,1005.29
2017-05-10T05:50:34.158Z,1005.3
2017-05-10T05:51:34.174Z,1005.28
2017-05-10T05:52:34.122Z,1005.26
2017-05-10T05:53:34.105Z,1005.28
2017-05-10T05:54:34.080Z,1005.27
2017-05-10T05:55:34.063Z,1005.25
2017-05-10T05:56:34.031Z,1005.24
2017-05-10T05:57:34.013Z,1005.22
2017-05-10T05:58:33.992Z,1005.2
2017-05-10T05:59:33.972Z,1005.19
2017-05-10T06:00:33.953Z,1005.21
2017-05-10T06:01:33.929Z,1005.2
2017-05-10T06:02:33.913Z,1005.17
2017-05-10T06:03:33.888Z,1005.17
2017-05-10T06:04:33.874Z,1005.2
2017-05-10T06:05:33.853Z,1005.17
2017-05-10T06:06:33.823Z,1005.14
2017-05-10T06:07:33.814Z,1005.13
2017-05-10T06:08:33.795Z,1005.13
2017-05-10T06:09:33.762Z,1005.13
2017-05-10T06:10:33.745Z,1005.09
2017-05-10T06:11:33.725Z,1005.11
2017-05-10T06:12:33.699Z,1005.14
2017-05-10T06:13:33.683Z,1005.1
2017-05-10T06:14:33.658Z,1005.13
2017-05-10T06:15:33.647Z,1005.14
2017-05-10T06:16:33.624Z,1005.11
2017-05-10T06:17:33.602Z,1005.05
2017-05-10T06:18:33.581Z,1005.08
2017-05-10T06:19:33.556Z,1005.06
2017-05-10T06:20:33.533Z,1005.09
2017-05-10T06:21:33.511Z,1005.07
2017-05-10T06:22:33.493Z,1005.04
2017-05-10T06:23:33.473Z,1005.08
2017-05-10T06:24:33.454Z,1005.08
2017-05-10T06:25:33.434Z,1005.07
2017-05-10T06:26:33.412Z,1005.02
2017-05-10T06:27:33.393Z,1005.04
2017-05-10T06:28:33.373Z,1005.05
2017-05-10T06:29:33.351Z,1005.06
2017-05-10T06:30:33.333Z,1005.02
2017-05-10T06:31:33.312Z,1005.02
2017-05-10T06:32:33.293Z,1005.02
2017-05-10T06:33:33.271Z,1005.04
2017-05-10T06:34:33.255Z,1005.07
2017-05-10T06:35:33.233Z,1005.07
2017-05-10T06:36:33.214Z,1005.05
2017-05-10T06:37:33.190Z,1005.05
2017-05-10T06:38:33.170Z,1005.07
2017-05-10T06:39:33.163Z,1005.06
2017-05-10T06:40:33.130Z,1005.08
2017-05-10T06:41:33.108Z,1005.03
2017-05-10T06:42:33.091Z,1005.05
2017-05-10T06:43:33.082Z,1005
2017-05-10T06:44:33.051Z,1005.07
2017-05-10T06:45:33.035Z,1005.04
2017-05-10T06:46:33.011Z,1005.01
2017-05-10T06:47:32.993Z,1005.02
2017-05-10T06:48:32.973Z,1005.02
2017-05-10T06:49:32.953Z,1004.99
2017-05-10T06:50:32.941Z,1005
2017-05-10T06:51:32.923Z,1004.99
2017-05-10T06:52:32.896Z,1004.98
2017-05-10T06:53:32.879Z,1004.99
2017-05-10T06:54:32.863Z,1004.97
2017-05-10T06:55:32.841Z,1004.98
2017-05-10T06:56:32.821Z,1004.95
2017-05-10T06:57:32.802Z,1004.95
2017-05-10T06:58:32.782Z,1004.92
2017-05-10T06:59:32.762Z,1004.91
2017-05-10T07:00:32.996Z,1004.88
2017-05-10T07:01:32.720Z,1004.89
2017-05-10T07:02:32.702Z,1004.89
2017-05-10T07:03:32.682Z,1004.87
2017-05-10T07:04:32.675Z,1004.91
2017-05-10T07:05:32.653Z,1004.92
2017-05-10T07:06:32.625Z,1004.91
2017-05-10T07:07:32.609Z,1004.89
2017-05-10T07:08:32.593Z,1004.87
2017-05-10T07:09:32.564Z,1004.88
2017-05-10T07:10:32.555Z,1004.88
2017-05-10T07:11:32.531Z,1004.87
2017-05-10T07:12:32.509Z,1004.9
2017-05-10T07:13:32.493Z,1004.85
2017-05-10T07:14:32.472Z,1004.87
2017-05-10T07:15:32.454Z,1004.85
2017-05-10T07:16:32.436Z,1004.84
2017-05-10T07:17:32.424Z,1004.84
2017-05-10T07:18:32.404Z,1004.84
2017-05-10T07:19:32.382Z,1004.87
2017-05-10T07:20:32.361Z,1004.89
2017-05-10T07:21:32.342Z,1004.87
2017-05-10T07:22:32.321Z,1004.86
2017-05-10T07:23:32.302Z,1004.87
2017-05-10T07:24:32.293Z,1004.83
2017-05-10T07:25:32.268Z,1004.89
2017-05-10T07:26:32.246Z,1004.84
2017-05-10T07:27:32.232Z,1004.85
2017-05-10T07:28:32.214Z,1004.87
2017-05-10T07:29:32.191Z,1004.87
2017-05-10T07:30:32.173Z,1004.92
2017-05-10T07:31:32.154Z,1004.91
2017-05-10T07:32:32.141Z,1004.89
2017-05-10T07:33:32.120Z,1004.92
2017-05-10T07:34:32.101Z,1004.93
2017-05-10T07:35:32.085Z,1004.9
2017-05-10T07:36:32.075Z,1004.93
2017-05-10T07:37:32.052Z,1004.91
2017-05-10T07:38:32.032Z,1004.94
2017-05-10T07:39:32.012Z,1004.93
2017-05-10T07:40:31.991Z,1004.87
2017-05-10T07:41:31.983Z,1004.88
2017-05-10T07:42:31.964Z,1004.85
2017-05-10T07:43:31.944Z,1004.87
2017-05-10T07:44:31.922Z,1004.91
2017-05-10T07:45:31.903Z,1004.86
2017-05-10T07:46:31.885Z,1004.86
2017-05-10T07:47:31.867Z,1004.88
2017-05-10T07:48:31.854Z,1004.87
2017-05-10T07:49:31.835Z,1004.99
2017-05-10T07:50:31.822Z,1005.12
2017-05-10T07:51:31.802Z,1005.37
2017-05-10T07:52:31.784Z,1005.59
2017-05-10T07:53:31.768Z,1005.75
2017-05-10T07:54:31.752Z,1005.76
2017-05-10T07:55:31.732Z,1005.84
2017-05-10T07:56:31.713Z,1005.92
2017-05-10T07:57:31.711Z,1006
2017-05-10T07:58:31.679Z,1005.99
2017-05-10T07:59:31.663Z,1005.89
2017-05-10T08:00:31.657Z,1005.72
2017-05-10T08:01:31.631Z,1005.48
2017-05-10T08:02:31.615Z,1005.35
2017-05-10T08:03:31.603Z,1005.3
2017-05-10T08:04:31.594Z,1005.31
2017-05-10T08:05:31.573Z,1005.33
2017-05-10T08:06:31.557Z,1005.13
2017-05-10T08:07:31.544Z,1005.32
2017-05-10T08:08:31.531Z,1005.23
2017-05-10T08:09:31.552Z,1005.34
2017-05-10T08:10:31.503Z,1005.31
2017-05-10T08:11:31.491Z,1005.32
2017-05-10T08:12:31.475Z,1005.32
2017-05-10T08:13:31.465Z,1005.37
2017-05-10T08:14:31.451Z,1005.29
2017-05-10T08:15:31.443Z,1005.3
2017-05-10T08:16:31.429Z,1005.05
2017-05-10T08:17:31.416Z,1004.87
2017-05-10T08:18:31.403Z,1004.88
2017-05-10T08:19:31.395Z,1004.87
2017-05-10T08:20:31.380Z,1004.87
2017-05-10T08:21:31.376Z,1004.85
2017-05-10T08:22:31.360Z,1004.85
2017-05-10T08:23:31.344Z,1004.82
2017-05-10T08:24:31.335Z,1004.88
2017-05-10T08:25:31.327Z,1004.93
2017-05-10T08:26:31.312Z,1004.9
2017-05-10T08:27:31.305Z,1004.88
2017-05-10T08:28:31.296Z,1004.92
2017-05-10T08:29:31.277Z,1004.93
2017-05-10T08:30:31.264Z,1004.91
2017-05-10T08:31:31.255Z,1004.91
2017-05-10T08:32:31.247Z,1004.92
2017-05-10T08:33:31.241Z,1004.93
2017-05-10T08:34:31.224Z,1004.9
2017-05-10T08:35:31.215Z,1004.91
2017-05-10T08:36:31.208Z,1004.92
2017-05-10T08:37:31.202Z,1004.94
2017-05-10T08:38:31.187Z,1004.93
2017-05-10T08:39:31.178Z,1004.86
2017-05-10T08:40:31.170Z,1004.86
2017-05-10T08:41:31.165Z,1004.86
2017-05-10T08:42:31.153Z,1004.8
2017-05-10T08:43:31.144Z,1004.79
2017-05-10T08:44:31.133Z,1004.75
2017-05-10T08:45:31.123Z,1004.81
2017-05-10T08:46:31.116Z,1004.73
2017-05-10T08:47:31.110Z,1004.71
2017-05-10T08:48:31.102Z,1004.71
2017-05-10T08:49:31.084Z,1004.73
2017-05-10T08:50:31.081Z,1004.78
2017-05-10T08:51:31.069Z,1004.87
2017-05-10T08:52:31.062Z,1004.81
2017-05-10T08:53:31.045Z,1004.8
2017-05-10T08:54:31.034Z,1004.98
2017-05-10T08:55:31.030Z,1004.64
2017-05-10T08:56:31.015Z,1004.93
2017-05-10T08:57:31.007Z,1004.58
2017-05-10T08:58:31.002Z,1005.2
2017-05-10T08:59:30.994Z,1005.11
2017-05-10T09:00:30.985Z,1005.03
2017-05-10T09:01:30.977Z,1004.96
2017-05-10T09:02:30.966Z,1004.91
2017-05-10T09:03:30.954Z,1004.74
2017-05-10T09:04:30.947Z,1004.84
2017-05-10T09:05:30.938Z,1004.89
2017-05-10T09:06:30.936Z,1004.83
2017-05-10T09:07:30.923Z,1004.87
2017-05-10T09:08:30.920Z,1004.94
2017-05-10T09:09:30.914Z,1004.96
2017-05-10T09:10:30.914Z,1004.88
2017-05-10T09:11:30.899Z,1004.84
2017-05-10T09:12:30.893Z,1004.89
2017-05-10T09:13:30.884Z,1004.85
2017-05-10T09:14:30.881Z,1004.7
2017-05-10T09:15:30.874Z,1004.84
2017-05-10T09:16:30.866Z,1004.67
2017-05-10T09:17:30.859Z,1004.49
2017-05-10T09:18:30.854Z,1004.44
2017-05-10T09:19:30.842Z,1004.43
2017-05-10T09:20:30.838Z,1004.56
2017-05-10T09:21:30.829Z,1004.39
2017-05-10T09:22:30.823Z,1004.43
2017-05-10T09:23:30.857Z,1004.36
2017-05-10T09:24:30.805Z,1004.42
2017-05-10T09:25:30.799Z,1004.41
2017-05-10T09:26:30.791Z,1004.37
2017-05-10T09:27:30.782Z,1004.34
2017-05-10T09:28:30.768Z,1004.33
2017-05-10T09:29:30.760Z,1004.34
2017-05-10T09:30:30.747Z,1004.44
2017-05-10T09:31:30.736Z,1004.31
2017-05-10T09:32:30.728Z,1004.28
2017-05-10T09:33:30.820Z,1004.39
2017-05-10T09:34:30.705Z,1004.28
2017-05-10T09:35:30.692Z,1004.26
2017-05-10T09:36:30.684Z,1004.24
2017-05-10T09:37:30.673Z,1004.43
2017-05-10T09:38:30.665Z,1004.45
2017-05-10T09:39:30.654Z,1004.45
2017-05-10T09:40:30.654Z,1004.32
2017-05-10T09:41:30.636Z,1004.34
2017-05-10T09:42:30.621Z,1004.34
2017-05-10T09:43:30.614Z,1004.24
2017-05-10T09:44:30.601Z,1004.27
2017-05-10T09:45:30.594Z,1004.31
2017-05-10T09:46:30.581Z,1004.19
2017-05-10T09:47:30.577Z,1004.2
2017-05-10T09:48:30.564Z,1004.2
2017-05-10T09:49:30.554Z,1004.27
2017-05-10T09:50:30.546Z,1004.15
2017-05-10T09:51:30.532Z,1004.17
2017-05-10T09:52:30.525Z,1004.14
2017-05-10T09:53:30.513Z,1004.19
2017-05-10T09:54:30.504Z,1004.15
2017-05-10T09:55:30.495Z,1004.13
2017-05-10T09:56:30.484Z,1004.11
2017-05-10T09:57:30.473Z,1004.14
2017-05-10T09:58:30.467Z,1004.1
2017-05-10T09:59:30.458Z,1004.13
2017-05-10T10:00:30.443Z,1004.14
2017-05-10T10:01:30.446Z,1004.11
2017-05-10T10:02:30.414Z,1004.07
2017-05-10T10:03:30.404Z,1004.02
2017-05-10T10:04:30.407Z,1004.06
2017-05-10T10:05:30.385Z,1004.03
2017-05-10T10:06:30.392Z,1004.01
2017-05-10T10:07:30.355Z,1004.01
2017-05-10T10:08:30.435Z,1003.94
2017-05-10T10:09:30.329Z,1003.98
2017-05-10T10:10:30.318Z,1004
2017-05-10T10:11:30.304Z,1003.93
2017-05-10T10:12:30.295Z,1003.95
2017-05-10T10:13:30.281Z,1003.99
2017-05-10T10:14:30.311Z,1003.97
2017-05-10T10:15:30.256Z,1004
2017-05-10T10:16:30.241Z,1004
2017-05-10T10:17:30.235Z,1004
2017-05-10T10:18:30.241Z,1004
2017-05-10T10:19:30.206Z,1004.01
2017-05-10T10:20:30.243Z,1004.02
2017-05-10T10:21:30.180Z,1003.99
2017-05-10T10:22:30.164Z,1003.98
2017-05-10T10:23:30.155Z,1004
2017-05-10T10:24:30.139Z,1003.93
2017-05-10T10:25:30.141Z,1003.9
2017-05-10T10:26:30.126Z,1003.91
2017-05-10T10:27:30.105Z,1003.9
2017-05-10T10:28:30.094Z,1003.89
2017-05-10T10:29:30.086Z,1003.88
2017-05-10T10:30:30.072Z,1003.92
2017-05-10T10:31:30.063Z,1003.89
2017-05-10T10:32:30.050Z,1003.9
2017-05-10T10:33:30.034Z,1003.89
2017-05-10T10:34:30.023Z,1003.9
2017-05-10T10:35:30.014Z,1003.92
2017-05-10T10:36:30.004Z,1003.87
2017-05-10T10:37:29.985Z,1003.9
2017-05-10T10:38:29.974Z,1003.85
2017-05-10T10:39:29.963Z,1003.87
2017-05-10T10:40:29.946Z,1003.84
2017-05-10T10:41:29.937Z,1003.79
2017-05-10T10:42:29.922Z,1003.83
2017-05-10T10:43:29.913Z,1003.82
2017-05-10T10:44:29.899Z,1003.76
2017-05-10T10:45:29.882Z,1003.72
2017-05-10T10:46:29.866Z,1003.73
2017-05-10T10:47:29.859Z,1003.72
2017-05-10T10:48:29.854Z,1003.69
2017-05-10T10:49:29.833Z,1003.68
2017-05-10T10:50:29.822Z,1003.69
2017-05-10T10:51:29.812Z,1003.65
2017-05-10T10:52:29.788Z,1003.71
2017-05-10T10:53:29.780Z,1003.65
2017-05-10T10:54:29.764Z,1003.6
2017-05-10T10:55:29.754Z,1003.65
2017-05-10T10:56:29.744Z,1003.64
2017-05-10T10:57:29.731Z,1003.7
2017-05-10T10:58:29.712Z,1003.64
2017-05-10T10:59:29.696Z,1003.58
2017-05-10T11:00:29.690Z,1003.53
2017-05-10T11:01:29.672Z,1003.54
2017-05-10T11:02:29.661Z,1003.52
2017-05-10T11:03:29.654Z,1003.5
2017-05-10T11:04:29.633Z,1003.54
2017-05-10T11:05:29.621Z,1003.52
2017-05-10T11:06:29.607Z,1003.52
2017-05-10T11:07:29.606Z,1003.48
2017-05-10T11:08:29.583Z,1003.44
2017-05-10T11:09:29.572Z,1003.45
2017-05-10T11:10:29.561Z,1003.44
2017-05-10T11:11:29.547Z,1003.43
2017-05-10T11:12:29.534Z,1003.42
2017-05-10T11:13:29.520Z,1003.41
2017-05-10T11:14:29.517Z,1003.43
2017-05-10T11:15:29.502Z,1003.41
2017-05-10T11:16:29.485Z,1003.38
2017-05-10T11:17:29.474Z,1003.41
2017-05-10T11:18:29.459Z,1003.4
2017-05-10T11:19:29.454Z,1003.37
2017-05-10T11:20:29.440Z,1003.4
2017-05-10T11:21:29.432Z,1003.4
2017-05-10T11:22:29.412Z,1003.41
2017-05-10T11:23:29.405Z,1003.47
2017-05-10T11:24:29.390Z,1003.46
2017-05-10T11:25:29.379Z,1003.44
2017-05-10T11:26:29.362Z,1003.41
2017-05-10T11:27:29.353Z,1003.37
2017-05-10T11:28:29.343Z,1003.39
2017-05-10T11:29:29.325Z,1003.4
2017-05-10T11:30:29.321Z,1003.38
2017-05-10T11:31:29.302Z,1003.35
2017-05-10T11:32:29.295Z,1003.4
2017-05-10T11:33:29.275Z,1003.43
2017-05-10T11:34:29.264Z,1003.43
2017-05-10T11:35:29.250Z,1003.44
2017-05-10T11:36:29.246Z,1003.41
2017-05-10T11:37:29.226Z,1003.37
2017-05-10T11:38:29.211Z,1003.37
2017-05-10T11:39:29.201Z,1003.39
2017-05-10T11:40:29.192Z,1003.33
2017-05-10T11:41:29.177Z,1003.34
2017-05-10T11:42:29.165Z,1003.31
2017-05-10T11:43:29.163Z,1003.3
2017-05-10T11:44:29.143Z,1003.29
2017-05-10T11:45:29.131Z,1003.24
2017-05-10T11:46:29.124Z,1003.27
2017-05-10T11:47:29.109Z,1003.21
2017-05-10T11:48:29.093Z,1003.21
2017-05-10T11:49:29.088Z,1003.22
2017-05-10T11:50:29.072Z,1003.2
2017-05-10T11:51:29.062Z,1003.14
2017-05-10T11:52:29.046Z,1003.23
2017-05-10T11:53:29.034Z,1003.24
2017-05-10T11:54:29.024Z,1003.19
2017-05-10T11:55:29.010Z,1003.18
2017-05-10T11:56:29.003Z,1003.15
2017-05-10T11:57:28.989Z,1003.14
2017-05-10T11:58:28.974Z,1003.12
2017-05-10T11:59:28.965Z,1003.13
2017-05-10T12:00:28.958Z,1003.09
2017-05-10T12:01:28.938Z,1003.05
2017-05-10T12:02:28.930Z,1003.02
2017-05-10T12:03:28.915Z,1003.04
2017-05-10T12:04:28.907Z,1003.02
2017-05-10T12:05:28.888Z,1003.06
2017-05-10T12:06:28.884Z,1003.02
2017-05-10T12:07:28.864Z,1003.04
2017-05-10T12:08:28.859Z,1003.1